sensor_id;sensor_type;location;lat;lon;timestamp;pressure;altitude;pressure_sealevel;temperature;humidity
49915;BME280;35806;47.958;13.158;2022-11-04T00:00:40;93516.72;;;13.91;45.56
49915;BME280;35806;47.958;13.158;2022-11-04T00:03:07;93519.71;;;13.99;45.41
49915;BME280;35806;47.958;13.158;2022-11-04T00:05:35;93522.46;;;13.87;44.66
49915;BME280;35806;47.958;13.158;2022-11-04T00:08:03;93526.25;;;14.37;42.48
49915;BME280;35806;47.958;13.158;2022-11-04T00:10:30;93526.32;;;14.65;43.02
49915;BME280;35806;47.958;13.158;2022-11-04T00:12:57;93531.43;;;14.09;43.62
49915;BME280;35806;47.958;13.158;2022-11-04T00:15:25;93540.26;;;14.25;42.74
49915;BME280;35806;47.958;13.158;2022-11-04T00:17:53;93547.94;;;14.71;43.94
49915;BME280;35806;47.958;13.158;2022-11-04T00:20:20;93559.71;;;14.41;44.48
49915;BME280;35806;47.958;13.158;2022-11-04T00:22:48;93571.89;;;14.50;43.41
49915;BME280;35806;47.958;13.158;2022-11-04T00:25:15;93567.58;;;13.93;45.55
49915;BME280;35806;47.958;13.158;2022-11-04T00:27:43;93575.90;;;14.31;46.11
49915;BME280;35806;47.958;13.158;2022-11-04T00:30:16;93575.68;;;14.01;47.60
49915;BME280;35806;47.958;13.158;2022-11-04T00:32:43;93578.74;;;13.76;45.63
49915;BME280;35806;47.958;13.158;2022-11-04T00:35:11;93583.17;;;13.52;47.68
49915;BME280;35806;47.958;13.158;2022-11-04T00:37:41;93599.72;;;13.02;48.94
49915;BME280;35806;47.958;13.158;2022-11-04T00:40:11;93588.95;;;13.29;49.58
49915;BME280;35806;47.958;13.158;2022-11-04T00:42:39;93599.68;;;13.91;49.24
49915;BME280;35806;47.958;13.158;2022-11-04T00:45:07;93624.99;;;13.65;49.76
49915;BME280;35806;47.958;13.158;2022-11-04T00:47:34;93611.66;;;13.61;49.91
49915;BME280;35806;47.958;13.158;2022-11-04T00:50:02;93618.60;;;13.44;49.82
49915;BME280;35806;47.958;13.158;2022-11-04T00:52:29;93638.13;;;13.59;50.66
49915;BME280;35806;47.958;13.158;2022-11-04T00:54:57;93639.60;;;13.43;50.36
49915;BME280;35806;47.958;13.158;2022-11-04T00:57:23;93681.78;;;12.27;50.28
49915;BME280;35806;47.958;13.158;2022-11-04T00:59:51;93754.55;;;12.85;51.22
49915;BME280;35806;47.958;13.158;2022-11-04T01:02:18;93796.48;;;10.32;58.19
49915;BME280;35806;47.958;13.158;2022-11-04T01:04:54;93797.15;;;9.33;64.22
49915;BME280;35806;47.958;13.158;2022-11-04T01:07:21;93787.73;;;8.98;65.17
49915;BME280;35806;47.958;13.158;2022-11-04T01:09:49;93788.26;;;8.42;67.58
49915;BME280;35806;47.958;13.158;2022-11-04T01:12:16;93782.77;;;8.75;68.70
49915;BME280;35806;47.958;13.158;2022-11-04T01:14:43;93783.10;;;8.12;69.70
49915;BME280;35806;47.958;13.158;2022-11-04T01:17:11;93782.31;;;8.24;70.10
49915;BME280;35806;47.958;13.158;2022-11-04T01:19:38;93779.07;;;8.44;69.63
49915;BME280;35806;47.958;13.158;2022-11-04T01:22:05;93780.15;;;8.27;70.22
49915;BME280;35806;47.958;13.158;2022-11-04T01:24:33;93784.49;;;7.74;71.00
49915;BME280;35806;47.958;13.158;2022-11-04T01:27:00;93787.06;;;8.08;70.34
49915;BME280;35806;47.958;13.158;2022-11-04T01:29:27;93787.61;;;8.03;70.62
49915;BME280;35806;47.958;13.158;2022-11-04T01:31:55;93789.12;;;7.80;71.53
49915;BME280;35806;47.958;13.158;2022-11-04T01:34:23;93788.07;;;8.46;69.44
49915;BME280;35806;47.958;13.158;2022-11-04T01:36:55;93791.40;;;8.57;69.62
49915;BME280;35806;47.958;13.158;2022-11-04T01:39:27;93793.00;;;8.41;68.66
49915;BME280;35806;47.958;13.158;2022-11-04T01:41:55;93787.34;;;8.46;69.52
49915;BME280;35806;47.958;13.158;2022-11-04T01:44:56;93790.81;;;8.02;70.75
49915;BME280;35806;47.958;13.158;2022-11-04T01:47:28;93796.56;;;8.32;70.80
49915;BME280;35806;47.958;13.158;2022-11-04T01:50:00;93804.28;;;8.66;68.94
49915;BME280;35806;47.958;13.158;2022-11-04T01:52:33;93812.44;;;9.30;66.59
49915;BME280;35806;47.958;13.158;2022-11-04T01:55:07;93816.07;;;9.15;67.45
49915;BME280;35806;47.958;13.158;2022-11-04T01:57:40;93815.41;;;10.06;65.26
49915;BME280;35806;47.958;13.158;2022-11-04T02:15:36;93826.79;;;9.68;67.01
49915;BME280;35806;47.958;13.158;2022-11-04T02:18:22;93832.58;;;9.88;66.82
49915;BME280;35806;47.958;13.158;2022-11-04T02:21:11;93836.75;;;8.45;69.95
49915;BME280;35806;47.958;13.158;2022-11-04T02:23:57;93844.69;;;9.09;67.86
49915;BME280;35806;47.958;13.158;2022-11-04T02:27:14;93837.53;;;8.57;67.89
49915;BME280;35806;47.958;13.158;2022-11-04T02:29:59;93840.76;;;8.36;68.38
49915;BME280;35806;47.958;13.158;2022-11-04T02:32:37;93845.42;;;7.75;70.01
49915;BME280;35806;47.958;13.158;2022-11-04T02:35:14;93846.82;;;8.21;68.98
49915;BME280;35806;47.958;13.158;2022-11-04T02:37:49;93859.21;;;8.95;67.19
49915;BME280;35806;47.958;13.158;2022-11-04T02:40:23;93860.70;;;9.19;66.47
49915;BME280;35806;47.958;13.158;2022-11-04T02:42:56;93863.85;;;8.50;69.31
49915;BME280;35806;47.958;13.158;2022-11-04T02:45:30;93867.95;;;8.64;67.87
49915;BME280;35806;47.958;13.158;2022-11-04T02:48:04;93867.79;;;8.68;67.41
49915;BME280;35806;47.958;13.158;2022-11-04T02:50:40;93869.72;;;8.94;66.71
49915;BME280;35806;47.958;13.158;2022-11-04T02:53:13;93862.91;;;8.89;66.82
49915;BME280;35806;47.958;13.158;2022-11-04T02:55:44;93873.09;;;8.92;66.35
49915;BME280;35806;47.958;13.158;2022-11-04T02:58:15;93872.22;;;8.54;66.93
49915;BME280;35806;47.958;13.158;2022-11-04T03:00:46;93866.62;;;8.19;67.40
49915;BME280;35806;47.958;13.158;2022-11-04T03:03:20;93875.07;;;7.88;68.79
49915;BME280;35806;47.958;13.158;2022-11-04T03:05:51;93871.89;;;8.32;68.19
49915;BME280;35806;47.958;13.158;2022-11-04T03:08:28;93863.81;;;8.13;67.71
49915;BME280;35806;47.958;13.158;2022-11-04T03:11:02;93863.35;;;8.42;67.72
49915;BME280;35806;47.958;13.158;2022-11-04T03:13:35;93857.85;;;8.01;67.82
49915;BME280;35806;47.958;13.158;2022-11-04T03:16:06;93860.26;;;8.11;68.05
49915;BME280;35806;47.958;13.158;2022-11-04T03:18:41;93861.93;;;8.57;67.10
49915;BME280;35806;47.958;13.158;2022-11-04T03:21:11;93864.84;;;7.64;67.39
49915;BME280;35806;47.958;13.158;2022-11-04T03:23:42;93859.22;;;8.30;67.21
49915;BME280;35806;47.958;13.158;2022-11-04T03:26:14;93860.85;;;7.86;67.61
49915;BME280;35806;47.958;13.158;2022-11-04T03:28:48;93861.62;;;8.59;65.48
49915;BME280;35806;47.958;13.158;2022-11-04T03:31:28;93861.28;;;8.54;65.32
49915;BME280;35806;47.958;13.158;2022-11-04T03:33:57;93862.27;;;8.94;64.93
49915;BME280;35806;47.958;13.158;2022-11-04T03:36:24;93857.26;;;8.33;66.16
49915;BME280;35806;47.958;13.158;2022-11-04T03:38:53;93853.01;;;8.67;64.84
49915;BME280;35806;47.958;13.158;2022-11-04T03:41:26;93849.20;;;8.78;65.32
49915;BME280;35806;47.958;13.158;2022-11-04T03:43:55;93851.74;;;8.61;65.34
49915;BME280;35806;47.958;13.158;2022-11-04T03:46:23;93850.41;;;8.35;64.98
49915;BME280;35806;47.958;13.158;2022-11-04T03:48:51;93851.09;;;9.06;63.93
49915;BME280;35806;47.958;13.158;2022-11-04T03:51:19;93847.44;;;9.05;64.42
49915;BME280;35806;47.958;13.158;2022-11-04T03:53:47;93852.01;;;8.92;64.29
49915;BME280;35806;47.958;13.158;2022-11-04T03:56:27;93853.42;;;9.24;63.76
49915;BME280;35806;47.958;13.158;2022-11-04T03:59:09;93855.96;;;9.40;63.57
49915;BME280;35806;47.958;13.158;2022-11-04T04:01:47;93859.93;;;9.11;63.15
49915;BME280;35806;47.958;13.158;2022-11-04T04:04:22;93858.69;;;9.37;62.77
49915;BME280;35806;47.958;13.158;2022-11-04T04:06:55;93856.44;;;9.88;62.41
49915;BME280;35806;47.958;13.158;2022-11-04T04:09:35;93856.45;;;9.40;62.15
49915;BME280;35806;47.958;13.158;2022-11-04T04:12:12;93863.22;;;9.85;62.20
49915;BME280;35806;47.958;13.158;2022-11-04T04:14:44;93863.07;;;9.42;62.37
49915;BME280;35806;47.958;13.158;2022-11-04T04:17:18;93859.63;;;9.74;61.26
49915;BME280;35806;47.958;13.158;2022-11-04T04:19:51;93859.41;;;9.28;61.96
49915;BME280;35806;47.958;13.158;2022-11-04T04:22:22;93860.61;;;9.45;61.60
49915;BME280;35806;47.958;13.158;2022-11-04T04:24:54;93865.83;;;10.26;60.19
49915;BME280;35806;47.958;13.158;2022-11-04T04:27:29;93864.03;;;9.46;61.10
49915;BME280;35806;47.958;13.158;2022-11-04T04:30:00;93863.11;;;9.45;61.09
49915;BME280;35806;47.958;13.158;2022-11-04T04:32:29;93859.00;;;9.81;60.36
49915;BME280;35806;47.958;13.158;2022-11-04T04:34:59;93854.98;;;9.72;60.56
49915;BME280;35806;47.958;13.158;2022-11-04T04:37:26;93858.63;;;9.46;61.15
49915;BME280;35806;47.958;13.158;2022-11-04T04:39:56;93860.37;;;9.91;60.45
49915;BME280;35806;47.958;13.158;2022-11-04T04:42:25;93860.57;;;9.58;61.40
49915;BME280;35806;47.958;13.158;2022-11-04T04:44:57;93857.25;;;9.45;61.75
49915;BME280;35806;47.958;13.158;2022-11-04T04:47:26;93855.32;;;9.56;61.15
49915;BME280;35806;47.958;13.158;2022-11-04T04:49:57;93854.48;;;9.88;60.65
49915;BME280;35806;47.958;13.158;2022-11-04T04:52:26;93853.98;;;9.69;61.08
49915;BME280;35806;47.958;13.158;2022-11-04T04:54:55;93855.93;;;10.01;60.47
49915;BME280;35806;47.958;13.158;2022-11-04T04:57:23;93863.29;;;10.24;59.82
49915;BME280;35806;47.958;13.158;2022-11-04T04:59:50;93863.27;;;10.46;59.85
49915;BME280;35806;47.958;13.158;2022-11-04T05:02:16;93864.50;;;9.52;61.14
49915;BME280;35806;47.958;13.158;2022-11-04T05:04:48;93859.97;;;10.11;61.07
49915;BME280;35806;47.958;13.158;2022-11-04T05:07:16;93855.91;;;10.09;60.71
49915;BME280;35806;47.958;13.158;2022-11-04T05:09:44;93851.80;;;9.60;61.70
49915;BME280;35806;47.958;13.158;2022-11-04T05:12:11;93845.82;;;10.00;61.18
49915;BME280;35806;47.958;13.158;2022-11-04T05:14:39;93841.73;;;9.96;61.04
49915;BME280;35806;47.958;13.158;2022-11-04T05:17:06;93835.80;;;9.66;61.47
49915;BME280;35806;47.958;13.158;2022-11-04T05:19:34;93838.66;;;9.80;61.26
49915;BME280;35806;47.958;13.158;2022-11-04T05:22:01;93839.82;;;9.71;61.42
49915;BME280;35806;47.958;13.158;2022-11-04T05:24:29;93840.03;;;10.25;60.72
49915;BME280;35806;47.958;13.158;2022-11-04T05:26:56;93844.09;;;9.91;60.84
49915;BME280;35806;47.958;13.158;2022-11-04T05:29:24;93848.83;;;9.90;60.72
49915;BME280;35806;47.958;13.158;2022-11-04T05:31:51;93848.29;;;10.32;60.22
49915;BME280;35806;47.958;13.158;2022-11-04T05:34:19;93845.27;;;9.90;60.62
49915;BME280;35806;47.958;13.158;2022-11-04T05:36:47;93855.31;;;9.41;61.88
49915;BME280;35806;47.958;13.158;2022-11-04T05:39:14;93851.34;;;9.75;60.54
49915;BME280;35806;47.958;13.158;2022-11-04T05:41:42;93851.34;;;10.08;60.65
49915;BME280;35806;47.958;13.158;2022-11-04T05:44:09;93854.53;;;9.96;60.72
49915;BME280;35806;47.958;13.158;2022-11-04T05:46:36;93854.35;;;9.51;61.23
49915;BME280;35806;47.958;13.158;2022-11-04T05:49:03;93857.64;;;9.11;61.87
49915;BME280;35806;47.958;13.158;2022-11-04T05:51:36;93854.33;;;9.30;61.72
49915;BME280;35806;47.958;13.158;2022-11-04T05:54:04;93847.69;;;9.21;62.17
49915;BME280;35806;47.958;13.158;2022-11-04T05:56:31;93843.77;;;9.04;62.43
49915;BME280;35806;47.958;13.158;2022-11-04T05:58:59;93844.78;;;8.95;62.10
49915;BME280;35806;47.958;13.158;2022-11-04T06:01:29;93844.50;;;9.51;61.62
49915;BME280;35806;47.958;13.158;2022-11-04T06:03:57;93847.09;;;9.56;61.28
49915;BME280;35806;47.958;13.158;2022-11-04T06:06:27;93847.63;;;8.82;61.39
49915;BME280;35806;47.958;13.158;2022-11-04T06:08:54;93845.37;;;9.29;61.56
49915;BME280;35806;47.958;13.158;2022-11-04T06:11:24;93850.25;;;9.43;61.37
49915;BME280;35806;47.958;13.158;2022-11-04T06:13:53;93850.62;;;9.40;61.19
49915;BME280;35806;47.958;13.158;2022-11-04T06:16:21;93848.30;;;9.07;61.91
49915;BME280;35806;47.958;13.158;2022-11-04T06:18:48;93847.88;;;9.73;61.15
49915;BME280;35806;47.958;13.158;2022-11-04T06:21:27;93852.32;;;9.51;61.31
49915;BME280;35806;47.958;13.158;2022-11-04T06:23:56;93856.91;;;9.10;61.94
49915;BME280;35806;47.958;13.158;2022-11-04T06:26:26;93855.26;;;9.16;62.28
49915;BME280;35806;47.958;13.158;2022-11-04T06:28:54;93844.28;;;9.18;62.35
49915;BME280;35806;47.958;13.158;2022-11-04T06:31:21;93838.79;;;9.37;62.33
49915;BME280;35806;47.958;13.158;2022-11-04T06:33:49;93841.34;;;9.48;61.29
49915;BME280;35806;47.958;13.158;2022-11-04T06:36:16;93837.67;;;9.59;61.27
49915;BME280;35806;47.958;13.158;2022-11-04T06:38:44;93842.86;;;9.33;61.15
49915;BME280;35806;47.958;13.158;2022-11-04T06:41:14;93835.12;;;9.54;61.03
49915;BME280;35806;47.958;13.158;2022-11-04T06:43:42;93835.89;;;9.07;61.77
49915;BME280;35806;47.958;13.158;2022-11-04T06:46:24;93842.24;;;8.53;62.33
49915;BME280;35806;47.958;13.158;2022-11-04T06:48:52;93848.97;;;8.63;62.83
49915;BME280;35806;47.958;13.158;2022-11-04T06:51:19;93859.97;;;9.36;61.40
49915;BME280;35806;47.958;13.158;2022-11-04T06:53:47;93864.15;;;9.23;62.10
49915;BME280;35806;47.958;13.158;2022-11-04T06:56:14;93861.73;;;8.79;62.44
49915;BME280;35806;47.958;13.158;2022-11-04T06:58:42;93860.47;;;8.96;61.54
49915;BME280;35806;47.958;13.158;2022-11-04T07:01:09;93871.68;;;8.75;61.66
49915;BME280;35806;47.958;13.158;2022-11-04T07:03:37;93882.63;;;8.44;62.74
49915;BME280;35806;47.958;13.158;2022-11-04T07:06:06;93901.50;;;8.66;62.61
49915;BME280;35806;47.958;13.158;2022-11-04T07:08:33;93901.69;;;8.66;62.60
49915;BME280;35806;47.958;13.158;2022-11-04T07:11:00;93889.60;;;8.30;62.98
49915;BME280;35806;47.958;13.158;2022-11-04T07:13:27;93887.93;;;8.83;62.10
49915;BME280;35806;47.958;13.158;2022-11-04T07:15:55;93881.51;;;8.45;62.60
49915;BME280;35806;47.958;13.158;2022-11-04T07:18:28;93872.20;;;8.32;62.72
49915;BME280;35806;47.958;13.158;2022-11-04T07:20:57;93869.97;;;8.91;61.95
49915;BME280;35806;47.958;13.158;2022-11-04T07:23:24;93879.34;;;8.43;62.96
49915;BME280;35806;47.958;13.158;2022-11-04T07:25:52;93889.94;;;8.74;62.59
49915;BME280;35806;47.958;13.158;2022-11-04T07:28:20;93911.18;;;8.67;62.36
49915;BME280;35806;47.958;13.158;2022-11-04T07:30:58;93907.42;;;8.12;62.84
49915;BME280;35806;47.958;13.158;2022-11-04T07:33:26;93878.90;;;8.02;63.14
49915;BME280;35806;47.958;13.158;2022-11-04T07:35:54;93857.61;;;8.20;63.34
49915;BME280;35806;47.958;13.158;2022-11-04T07:38:22;93854.01;;;8.74;63.53
49915;BME280;35806;47.958;13.158;2022-11-04T07:40:50;93865.47;;;9.25;62.32
49915;BME280;35806;47.958;13.158;2022-11-04T07:43:17;93869.87;;;8.96;62.95
49915;BME280;35806;47.958;13.158;2022-11-04T07:45:45;93873.90;;;8.78;63.04
49915;BME280;35806;47.958;13.158;2022-11-04T07:48:17;93870.14;;;7.82;63.43
49915;BME280;35806;47.958;13.158;2022-11-04T07:50:44;93870.58;;;8.87;62.28
49915;BME280;35806;47.958;13.158;2022-11-04T07:53:12;93870.56;;;8.77;62.17
49915;BME280;35806;47.958;13.158;2022-11-04T07:55:39;93868.46;;;8.79;62.31
49915;BME280;35806;47.958;13.158;2022-11-04T07:58:07;93868.09;;;8.74;62.19
49915;BME280;35806;47.958;13.158;2022-11-04T08:00:34;93874.68;;;8.32;62.79
49915;BME280;35806;47.958;13.158;2022-11-04T08:03:02;93883.47;;;8.49;63.38
49915;BME280;35806;47.958;13.158;2022-11-04T08:05:30;93889.48;;;7.80;64.56
49915;BME280;35806;47.958;13.158;2022-11-04T08:07:57;93884.43;;;8.14;64.24
49915;BME280;35806;47.958;13.158;2022-11-04T08:10:24;93871.33;;;8.05;64.23
49915;BME280;35806;47.958;13.158;2022-11-04T08:12:51;93865.30;;;7.94;65.00
49915;BME280;35806;47.958;13.158;2022-11-04T08:15:19;93859.53;;;7.97;65.41
49915;BME280;35806;47.958;13.158;2022-11-04T08:17:47;93860.01;;;7.40;66.33
49915;BME280;35806;47.958;13.158;2022-11-04T08:20:15;93851.63;;;7.72;66.46
49915;BME280;35806;47.958;13.158;2022-11-04T08:22:42;93842.68;;;7.16;66.92
49915;BME280;35806;47.958;13.158;2022-11-04T08:25:10;93844.46;;;7.36;66.32
49915;BME280;35806;47.958;13.158;2022-11-04T08:27:37;93853.64;;;7.24;66.69
49915;BME280;35806;47.958;13.158;2022-11-04T08:30:06;93862.48;;;6.91;67.41
49915;BME280;35806;47.958;13.158;2022-11-04T08:32:33;93860.19;;;7.24;67.39
49915;BME280;35806;47.958;13.158;2022-11-04T08:35:01;93861.30;;;7.04;67.80
49915;BME280;35806;47.958;13.158;2022-11-04T08:37:28;93869.52;;;6.96;68.34
49915;BME280;35806;47.958;13.158;2022-11-04T08:39:56;93858.78;;;7.13;68.00
49915;BME280;35806;47.958;13.158;2022-11-04T08:42:23;93843.18;;;7.09;67.68
49915;BME280;35806;47.958;13.158;2022-11-04T08:44:50;93845.81;;;6.86;68.01
49915;BME280;35806;47.958;13.158;2022-11-04T08:47:17;93836.13;;;6.54;68.21
49915;BME280;35806;47.958;13.158;2022-11-04T08:49:45;93829.06;;;7.10;68.23
49915;BME280;35806;47.958;13.158;2022-11-04T08:52:12;93836.79;;;6.93;67.49
49915;BME280;35806;47.958;13.158;2022-11-04T08:54:39;93840.61;;;7.30;67.43
49915;BME280;35806;47.958;13.158;2022-11-04T08:57:06;93822.87;;;7.07;66.36
49915;BME280;35806;47.958;13.158;2022-11-04T08:59:35;93809.67;;;7.10;67.32
49915;BME280;35806;47.958;13.158;2022-11-04T09:02:02;93807.71;;;6.72;67.82
49915;BME280;35806;47.958;13.158;2022-11-04T09:04:30;93815.15;;;6.85;67.63
49915;BME280;35806;47.958;13.158;2022-11-04T09:06:57;93815.61;;;6.71;67.35
49915;BME280;35806;47.958;13.158;2022-11-04T09:09:24;93822.13;;;6.41;67.16
49915;BME280;35806;47.958;13.158;2022-11-04T09:11:52;93827.27;;;6.64;67.14
49915;BME280;35806;47.958;13.158;2022-11-04T09:14:20;93820.45;;;6.88;66.69
49915;BME280;35806;47.958;13.158;2022-11-04T09:16:47;93810.70;;;7.27;66.02
49915;BME280;35806;47.958;13.158;2022-11-04T09:19:14;93814.62;;;6.87;65.57
49915;BME280;35806;47.958;13.158;2022-11-04T09:21:42;93824.87;;;6.55;66.57
49915;BME280;35806;47.958;13.158;2022-11-04T09:24:09;93821.59;;;7.05;66.06
49915;BME280;35806;47.958;13.158;2022-11-04T09:26:37;93814.24;;;6.51;66.20
49915;BME280;35806;47.958;13.158;2022-11-04T09:29:04;93805.00;;;6.28;66.85
49915;BME280;35806;47.958;13.158;2022-11-04T09:31:32;93802.61;;;6.82;66.08
49915;BME280;35806;47.958;13.158;2022-11-04T09:33:59;93800.96;;;7.22;65.39
49915;BME280;35806;47.958;13.158;2022-11-04T09:36:26;93797.26;;;7.17;64.97
49915;BME280;35806;47.958;13.158;2022-11-04T09:38:54;93791.40;;;7.09;65.75
49915;BME280;35806;47.958;13.158;2022-11-04T09:42:01;93781.67;;;6.75;65.65
49915;BME280;35806;47.958;13.158;2022-11-04T09:44:40;93769.70;;;7.38;64.53
49915;BME280;35806;47.958;13.158;2022-11-04T09:47:11;93773.85;;;7.06;65.19
49915;BME280;35806;47.958;13.158;2022-11-04T09:49:41;93786.91;;;7.36;64.30
49915;BME280;35806;47.958;13.158;2022-11-04T09:52:16;93806.74;;;6.74;64.82
49915;BME280;35806;47.958;13.158;2022-11-04T09:54:49;93816.73;;;6.67;65.02
49915;BME280;35806;47.958;13.158;2022-11-04T09:57:20;93807.38;;;6.90;65.52
49915;BME280;35806;47.958;13.158;2022-11-04T09:59:53;93801.89;;;6.67;65.79
49915;BME280;35806;47.958;13.158;2022-11-04T10:02:36;93788.30;;;6.36;66.86
49915;BME280;35806;47.958;13.158;2022-11-04T10:05:18;93779.90;;;6.31;66.83
49915;BME280;35806;47.958;13.158;2022-11-04T10:08:02;93765.43;;;6.55;66.01
49915;BME280;35806;47.958;13.158;2022-11-04T10:10:36;93774.09;;;6.19;66.12
49915;BME280;35806;47.958;13.158;2022-11-04T10:13:16;93786.52;;;6.18;66.53
49915;BME280;35806;47.958;13.158;2022-11-04T10:16:00;93788.85;;;5.99;66.09
49915;BME280;35806;47.958;13.158;2022-11-04T10:18:41;93796.05;;;5.92;66.85
49915;BME280;35806;47.958;13.158;2022-11-04T10:21:23;93801.19;;;5.98;65.98
49915;BME280;35806;47.958;13.158;2022-11-04T10:24:06;93798.01;;;6.24;65.44
49915;BME280;35806;47.958;13.158;2022-11-04T10:26:42;93792.41;;;6.49;65.94
49915;BME280;35806;47.958;13.158;2022-11-04T10:29:22;93794.87;;;6.27;66.03
49915;BME280;35806;47.958;13.158;2022-11-04T10:31:52;93785.63;;;6.46;65.87
49915;BME280;35806;47.958;13.158;2022-11-04T10:34:28;93777.89;;;6.57;65.57
49915;BME280;35806;47.958;13.158;2022-11-04T10:36:58;93767.87;;;7.04;64.22
49915;BME280;35806;47.958;13.158;2022-11-04T10:39:28;93754.44;;;6.65;64.12
49915;BME280;35806;47.958;13.158;2022-11-04T10:41:56;93747.31;;;6.40;65.23
49915;BME280;35806;47.958;13.158;2022-11-04T10:44:25;93741.28;;;5.94;64.99
49915;BME280;35806;47.958;13.158;2022-11-04T10:47:03;93743.12;;;6.60;64.90
49915;BME280;35806;47.958;13.158;2022-11-04T10:49:43;93751.60;;;6.28;65.13
49915;BME280;35806;47.958;13.158;2022-11-04T10:52:14;93749.97;;;6.38;65.35
49915;BME280;35806;47.958;13.158;2022-11-04T10:54:44;93753.63;;;6.15;65.12
49915;BME280;35806;47.958;13.158;2022-11-04T10:57:13;93758.26;;;6.57;64.92
49915;BME280;35806;47.958;13.158;2022-11-04T10:59:50;93767.57;;;5.99;64.98
49915;BME280;35806;47.958;13.158;2022-11-04T11:02:18;93779.43;;;6.20;65.10
49915;BME280;35806;47.958;13.158;2022-11-04T11:04:45;93782.80;;;5.84;66.25
49915;BME280;35806;47.958;13.158;2022-11-04T11:07:14;93783.54;;;5.93;66.21
49915;BME280;35806;47.958;13.158;2022-11-04T11:09:49;93779.61;;;6.31;65.87
49915;BME280;35806;47.958;13.158;2022-11-04T11:12:20;93783.15;;;5.91;66.81
49915;BME280;35806;47.958;13.158;2022-11-04T11:14:54;93780.54;;;5.85;66.72
49915;BME280;35806;47.958;13.158;2022-11-04T11:17:24;93770.62;;;5.32;66.87
49915;BME280;35806;47.958;13.158;2022-11-04T11:20:04;93753.87;;;5.61;67.05
49915;BME280;35806;47.958;13.158;2022-11-04T11:22:43;93723.66;;;5.46;66.70
49915;BME280;35806;47.958;13.158;2022-11-04T11:25:22;93732.87;;;5.80;66.50
49915;BME280;35806;47.958;13.158;2022-11-04T11:27:51;93783.89;;;6.38;65.12
49915;BME280;35806;47.958;13.158;2022-11-04T11:30:22;93800.01;;;6.02;64.65
49915;BME280;35806;47.958;13.158;2022-11-04T11:32:52;93816.77;;;5.18;66.59
49915;BME280;35806;47.958;13.158;2022-11-04T11:35:25;93840.05;;;5.73;65.97
49915;BME280;35806;47.958;13.158;2022-11-04T11:37:53;93844.25;;;5.41;65.92
49915;BME280;35806;47.958;13.158;2022-11-04T11:40:26;93858.18;;;5.56;64.92
49915;BME280;35806;47.958;13.158;2022-11-04T11:42:54;93865.02;;;5.11;66.73
49915;BME280;35806;47.958;13.158;2022-11-04T11:45:23;93852.59;;;5.38;65.65
49915;BME280;35806;47.958;13.158;2022-11-04T11:47:51;93853.66;;;5.52;65.43
49915;BME280;35806;47.958;13.158;2022-11-04T11:50:20;93862.04;;;4.82;66.46
49915;BME280;35806;47.958;13.158;2022-11-04T11:52:49;93839.59;;;4.59;66.80
49915;BME280;35806;47.958;13.158;2022-11-04T11:55:18;93814.00;;;5.31;66.15
49915;BME280;35806;47.958;13.158;2022-11-04T11:57:54;93818.08;;;5.32;65.05
49915;BME280;35806;47.958;13.158;2022-11-04T12:00:27;93817.98;;;5.54;64.75
49915;BME280;35806;47.958;13.158;2022-11-04T12:03:01;93820.18;;;5.36;65.97
49915;BME280;35806;47.958;13.158;2022-11-04T12:05:36;93811.35;;;5.09;65.81
49915;BME280;35806;47.958;13.158;2022-11-04T12:08:24;93799.05;;;5.05;66.06
49915;BME280;35806;47.958;13.158;2022-11-04T12:11:00;93793.79;;;4.64;66.96
49915;BME280;35806;47.958;13.158;2022-11-04T12:13:36;93801.99;;;4.77;66.74
49915;BME280;35806;47.958;13.158;2022-11-04T12:16:15;93810.29;;;5.07;66.02
49915;BME280;35806;47.958;13.158;2022-11-04T12:18:59;93814.91;;;5.15;65.54
49915;BME280;35806;47.958;13.158;2022-11-04T12:21:31;93832.59;;;4.51;66.91
49915;BME280;35806;47.958;13.158;2022-11-04T12:24:03;93851.80;;;4.83;66.32
49915;BME280;35806;47.958;13.158;2022-11-04T12:26:44;93847.60;;;5.00;65.96
49915;BME280;35806;47.958;13.158;2022-11-04T12:29:33;93846.84;;;5.39;65.16
49915;BME280;35806;47.958;13.158;2022-11-04T12:32:13;93867.88;;;4.83;65.66
49915;BME280;35806;47.958;13.158;2022-11-04T12:34:59;93877.51;;;5.15;65.71
49915;BME280;35806;47.958;13.158;2022-11-04T12:37:37;93879.51;;;4.80;65.83
49915;BME280;35806;47.958;13.158;2022-11-04T12:40:11;93889.84;;;5.25;65.14
49915;BME280;35806;47.958;13.158;2022-11-04T12:42:56;93891.42;;;5.71;64.46
49915;BME280;35806;47.958;13.158;2022-11-04T12:45:33;93893.73;;;5.89;64.42
49915;BME280;35806;47.958;13.158;2022-11-04T12:48:11;93900.49;;;5.90;63.65
49915;BME280;35806;47.958;13.158;2022-11-04T12:50:59;93900.56;;;4.56;65.96
49915;BME280;35806;47.958;13.158;2022-11-04T12:53:52;93896.47;;;5.12;65.26
49915;BME280;35806;47.958;13.158;2022-11-04T12:56:29;93894.76;;;4.65;65.57
49915;BME280;35806;47.958;13.158;2022-11-04T12:59:47;93890.74;;;5.10;64.80
49915;BME280;35806;47.958;13.158;2022-11-04T13:02:22;93880.96;;;4.44;65.70
49915;BME280;35806;47.958;13.158;2022-11-04T13:04:57;93879.68;;;4.69;65.19
49915;BME280;35806;47.958;13.158;2022-11-04T13:07:30;93873.31;;;5.37;63.92
49915;BME280;35806;47.958;13.158;2022-11-04T13:10:13;93865.27;;;5.28;63.97
49915;BME280;35806;47.958;13.158;2022-11-04T13:12:45;93864.01;;;5.41;63.82
49915;BME280;35806;47.958;13.158;2022-11-04T13:15:17;93863.99;;;5.52;63.53
49915;BME280;35806;47.958;13.158;2022-11-04T13:17:48;93867.69;;;5.86;62.93
49915;BME280;35806;47.958;13.158;2022-11-04T13:20:29;93864.27;;;5.50;63.39
49915;BME280;35806;47.958;13.158;2022-11-04T13:23:03;93861.46;;;5.26;63.80
49915;BME280;35806;47.958;13.158;2022-11-04T13:25:38;93861.61;;;5.52;63.65
49915;BME280;35806;47.958;13.158;2022-11-04T13:28:10;93865.86;;;5.49;64.18
49915;BME280;35806;47.958;13.158;2022-11-04T13:30:44;93866.20;;;5.63;64.78
49915;BME280;35806;47.958;13.158;2022-11-04T13:33:20;93857.27;;;5.68;64.12
49915;BME280;35806;47.958;13.158;2022-11-04T13:35:56;93851.13;;;5.52;64.26
49915;BME280;35806;47.958;13.158;2022-11-04T13:38:30;93843.75;;;5.96;63.47